Time;durP1;ratioP1;P1;durP2;ratioP2;P2;SDS_P1;SDS_P2;PMS_P1;PMS_P2;Temp;Humidity;BMP_temperature;BMP_pressure;BME280_temperature;BME280_humidity;BME280_pressure;Samples;Min_cycle;Max_cycle;Signal;HPM_P1;HPM_P2
2023/06/08 00:02:07;;;;;;;5.70;5.17;;;21.50;1.00;;;;;;5094138;28;20453;-66
2023/06/08 00:04:34;;;;;;;5.30;4.40;;;21.50;1.00;;;;;;5094157;28;20548;-66
2023/06/08 00:07:04;;;;;;;6.83;4.83;;;21.50;1.00;;;;;;5094108;28;20530;-66
2023/06/08 00:09:31;;;;;;;5.17;4.57;;;21.40;1.00;;;;;;5094450;28;20822;-66
2023/06/08 00:11:58;;;;;;;8.17;4.60;;;21.40;1.00;;;;;;5094191;28;20540;-66
2023/06/08 00:14:25;;;;;;;5.50;4.80;;;21.40;1.00;;;;;;5094788;28;20785;-66
2023/06/08 00:16:52;;;;;;;6.27;4.70;;;21.30;1.00;;;;;;5094555;28;20495;-66
2023/06/08 00:19:19;;;;;;;5.00;4.40;;;21.30;1.00;;;;;;5094027;28;20513;-67
2023/06/08 00:21:48;;;;;;;9.33;4.30;;;21.30;1.00;;;;;;5095315;28;20759;-66
2023/06/08 00:24:17;;;;;;;5.07;4.57;;;21.20;1.00;;;;;;5098571;28;20495;-66
2023/06/08 00:26:44;;;;;;;5.97;5.03;;;21.20;1.00;;;;;;5098595;28;20873;-67
2023/06/08 00:29:10;;;;;;;5.30;4.67;;;21.10;1.00;;;;;;5098095;28;20540;-66
2023/06/08 00:31:38;;;;;;;4.40;4.00;;;21.10;1.00;;;;;;5098342;28;20945;-66
2023/06/08 00:34:04;;;;;;;4.93;4.40;;;21.00;1.00;;;;;;5098137;28;20465;-66
2023/06/08 00:36:31;;;;;;;5.70;4.40;;;21.00;1.00;;;;;;5097945;28;20481;-66
2023/06/08 00:38:58;;;;;;;4.60;4.20;;;21.00;1.00;;;;;;5098059;28;20481;-66
2023/06/08 00:41:26;;;;;;;5.40;4.90;;;20.90;1.00;;;;;;5098394;28;20537;-66
2023/06/08 00:43:53;;;;;;;5.20;4.70;;;20.80;1.00;;;;;;5098209;28;20481;-66
2023/06/08 00:46:20;;;;;;;6.20;5.60;;;20.80;1.00;;;;;;5098245;28;20778;-66
2023/06/08 00:48:47;;;;;;;5.50;4.87;;;20.70;1.00;;;;;;5098206;28;20551;-66
2023/06/08 00:51:16;;;;;;;5.47;4.87;;;20.70;1.00;;;;;;5097766;28;20463;-66
2023/06/08 00:53:43;;;;;;;6.10;5.50;;;20.60;1.00;;;;;;5098069;28;20457;-66
2023/06/08 00:56:11;;;;;;;6.87;4.50;;;20.50;1.00;;;;;;5097761;28;20500;-66
2023/06/08 00:58:39;;;;;;;5.57;4.97;;;20.50;1.00;;;;;;5097547;28;20474;-66
2023/06/08 01:01:11;;;;;;;7.57;4.70;;;20.50;1.00;;;;;;5098015;28;20463;-66
2023/06/08 01:03:38;;;;;;;9.70;4.77;;;20.40;1.00;;;;;;5097567;28;20442;-66
2023/06/08 01:06:08;;;;;;;5.23;4.83;;;20.30;1.00;;;;;;5097761;28;20461;-66
2023/06/08 01:08:52;;;;;;;7.17;5.00;;;20.30;1.00;;;;;;5097814;28;20461;-66
2023/06/08 01:11:28;;;;;;;8.23;5.10;;;20.30;1.00;;;;;;5097803;28;20510;-67
2023/06/08 01:14:15;;;;;;;6.50;5.00;;;20.20;1.00;;;;;;5097611;28;20445;-66
2023/06/08 01:16:50;;;;;;;5.93;5.20;;;20.20;1.00;;;;;;5097774;28;20524;-66
2023/06/08 01:19:28;;;;;;;5.70;4.00;;;20.10;1.00;;;;;;5097221;28;20473;-66
2023/06/08 01:22:08;;;;;;;6.20;5.30;;;20.10;1.00;;;;;;5097692;28;20831;-66
2023/06/08 01:24:39;;;;;;;5.73;5.13;;;20.10;1.00;;;;;;5097396;28;20889;-66
2023/06/08 01:27:08;;;;;;;4.90;4.50;;;20.00;1.00;;;;;;5097578;28;20524;-66
2023/06/08 01:29:35;;;;;;;6.30;4.97;;;20.00;1.00;;;;;;5097563;28;20449;-66
2023/06/08 01:32:02;;;;;;;5.70;5.20;;;20.00;1.00;;;;;;5096930;28;21020;-66
2023/06/08 01:34:29;;;;;;;6.23;5.30;;;20.00;1.00;;;;;;5097382;28;20548;-66
2023/06/08 01:37:01;;;;;;;4.93;4.43;;;20.00;1.00;;;;;;5097036;28;20493;-66
2023/06/08 01:39:46;;;;;;;5.37;4.40;;;19.90;1.00;;;;;;5097005;28;20491;-67
2023/06/08 01:42:18;;;;;;;5.60;5.10;;;19.90;1.00;;;;;;5097126;28;20422;-66
2023/06/08 01:44:50;;;;;;;5.43;4.57;;;19.90;1.00;;;;;;5097309;28;20442;-67
2023/06/08 01:47:18;;;;;;;5.20;4.63;;;19.90;1.00;;;;;;5097257;28;20452;-67
2023/06/08 01:49:46;;;;;;;7.73;4.63;;;19.90;1.00;;;;;;5096815;28;20557;-67
2023/06/08 01:52:13;;;;;;;5.60;4.73;;;19.80;1.00;;;;;;5097030;28;20483;-67
2023/06/08 01:54:42;;;;;;;6.93;6.23;;;19.80;1.00;;;;;;5096895;28;20552;-67
2023/06/08 01:57:09;;;;;;;5.63;5.00;;;19.80;1.00;;;;;;5096455;28;20540;-67
2023/06/08 01:59:36;;;;;;;5.60;4.20;;;19.70;1.00;;;;;;5096560;28;20489;-67
2023/06/08 02:02:03;;;;;;;5.90;5.10;;;19.70;1.00;;;;;;5097005;28;20464;-67
2023/06/08 02:04:30;;;;;;;5.20;4.70;;;19.70;1.00;;;;;;5096494;28;20906;-67
2023/06/08 02:06:57;;;;;;;7.47;4.67;;;19.60;1.00;;;;;;5096764;28;20939;-67
2023/06/08 02:09:24;;;;;;;6.93;5.13;;;19.60;1.00;;;;;;5096400;28;20544;-67
2023/06/08 02:12:04;;;;;;;5.10;4.60;;;19.60;1.00;;;;;;5096447;28;20910;-67
2023/06/08 02:14:31;;;;;;;5.33;4.73;;;19.50;1.00;;;;;;5096630;28;20446;-67
2023/06/08 02:17:00;;;;;;;6.43;5.00;;;19.50;1.00;;;;;;5096535;28;20468;-67
2023/06/08 02:19:27;;;;;;;10.97;8.60;;;19.50;1.00;;;;;;5096364;28;20488;-67
2023/06/08 02:21:54;;;;;;;6.43;4.90;;;19.40;1.00;;;;;;5096184;28;20453;-67
2023/06/08 02:24:21;;;;;;;5.30;4.80;;;19.40;1.00;;;;;;5096320;28;20469;-67
2023/06/08 02:26:51;;;;;;;6.87;4.80;;;19.40;1.00;;;;;;5096204;28;20468;-67
2023/06/08 02:29:20;;;;;;;5.20;4.40;;;19.30;1.00;;;;;;5096039;28;20902;-67
2023/06/08 02:31:47;;;;;;;8.40;5.00;;;19.30;1.00;;;;;;5096275;28;20457;-67
2023/06/08 02:34:15;;;;;;;5.57;4.93;;;19.20;1.00;;;;;;5095832;28;20468;-67
2023/06/08 02:36:42;;;;;;;8.17;4.63;;;19.20;1.00;;;;;;5095749;28;20477;-67
2023/06/08 02:39:09;;;;;;;5.33;4.90;;;19.20;1.00;;;;;;5095763;28;20570;-67
2023/06/08 02:41:36;;;;;;;6.50;4.60;;;19.10;1.00;;;;;;5095995;28;20537;-67
2023/06/08 06:13:11;;;;;;;8.03;4.87;;;20.40;1.00;;;;;;5092189;28;20856;-64
2023/06/08 06:15:38;;;;;;;5.33;4.47;;;20.60;1.00;;;;;;5096598;28;20449;-65
2023/06/08 06:18:05;;;;;;;7.37;4.77;;;20.70;1.00;;;;;;5096204;28;20518;-65
2023/06/08 06:20:31;;;;;;;5.90;4.73;;;20.90;1.00;;;;;;5094977;28;20459;-65
2023/06/08 06:22:58;;;;;;;6.00;5.03;;;21.00;1.00;;;;;;5096246;28;20453;-65
2023/06/08 06:25:25;;;;;;;8.37;5.10;;;21.10;1.00;;;;;;5095834;28;20514;-64
2023/06/08 06:27:52;;;;;;;9.40;5.13;;;21.20;1.00;;;;;;5096033;28;20453;-65
2023/06/08 06:30:20;;;;;;;4.90;4.40;;;21.40;1.00;;;;;;5095721;28;20463;-65
2023/06/08 06:32:47;;;;;;;6.67;5.00;;;21.50;1.00;;;;;;5096281;28;20536;-65
2023/06/08 06:35:14;;;;;;;12.60;5.13;;;21.50;1.00;;;;;;5095652;28;20914;-65
2023/06/08 06:37:41;;;;;;;12.57;5.40;;;21.70;1.00;;;;;;5095809;28;20453;-65
2023/06/08 06:40:08;;;;;;;6.00;4.57;;;21.80;1.00;;;;;;5095396;28;20473;-65
2023/06/08 06:42:37;;;;;;;5.03;4.40;;;21.90;1.00;;;;;;5095879;28;20483;-65
2023/06/08 06:45:04;;;;;;;9.77;5.83;;;22.00;1.00;;;;;;5095530;28;20469;-65
2023/06/08 06:47:32;;;;;;;6.17;4.37;;;22.10;1.00;;;;;;5095476;28;20960;-65
2023/06/08 06:50:00;;;;;;;8.20;5.10;;;22.20;1.00;;;;;;5095646;28;20453;-65
2023/06/08 06:52:27;;;;;;;6.37;4.50;;;22.30;1.00;;;;;;5095836;28;20460;-65
2023/06/08 06:54:53;;;;;;;7.20;4.60;;;22.40;1.00;;;;;;5095550;28;20460;-65
2023/06/08 06:57:20;;;;;;;9.60;5.03;;;22.50;1.00;;;;;;5095698;28;20484;-65
2023/06/08 06:59:48;;;;;;;10.53;5.03;;;22.60;1.00;;;;;;5095904;28;20477;-65
2023/06/08 07:02:15;;;;;;;5.40;4.40;;;22.70;1.00;;;;;;5095489;28;20453;-65
2023/06/08 07:04:43;;;;;;;5.77;4.23;;;22.80;1.00;;;;;;5095870;28;20468;-65
2023/06/08 07:07:10;;;;;;;5.80;4.70;;;22.80;1.00;;;;;;5095038;28;20457;-65
2023/06/08 07:09:37;;;;;;;4.90;4.50;;;22.80;1.00;;;;;;5095030;28;20449;-65
2023/06/08 07:12:05;;;;;;;6.73;4.90;;;22.80;1.00;;;;;;5094809;28;20481;-65
2023/06/08 07:14:32;;;;;;;7.30;5.13;;;22.90;1.00;;;;;;5095411;28;20457;-65
2023/06/08 07:16:59;;;;;;;5.83;4.50;;;23.00;1.00;;;;;;5095444;28;20537;-65
2023/06/08 07:19:26;;;;;;;4.80;4.40;;;23.00;1.00;;;;;;5095768;28;20487;-65
2023/06/08 07:21:54;;;;;;;10.47;5.10;;;23.10;1.00;;;;;;5095264;28;20536;-65
2023/06/08 07:24:21;;;;;;;6.60;4.40;;;23.10;1.00;;;;;;5095426;28;20535;-65
2023/06/08 07:26:48;;;;;;;11.50;4.60;;;23.20;1.00;;;;;;5095344;28;20471;-66
2023/06/08 07:29:15;;;;;;;6.50;5.10;;;23.30;1.00;;;;;;5095224;28;20479;-65
2023/06/08 07:31:42;;;;;;;5.07;4.57;;;23.40;1.00;;;;;;5095176;28;20457;-65
2023/06/08 07:34:09;;;;;;;5.07;4.50;;;23.40;1.00;;;;;;5094899;28;20454;-65
2023/06/08 07:36:36;;;;;;;6.77;4.80;;;23.50;1.00;;;;;;5095021;28;20492;-65
2023/06/08 07:39:04;;;;;;;6.70;4.60;;;23.60;1.00;;;;;;5094678;28;20484;-65
2023/06/08 07:41:31;;;;;;;6.30;5.40;;;23.60;1.00;;;;;;5094407;28;20483;-65
2023/06/08 07:43:58;;;;;;;6.57;4.80;;;23.70;1.00;;;;;;5094721;28;20453;-65
2023/06/08 07:46:25;;;;;;;5.37;4.83;;;23.70;1.00;;;;;;5094377;28;20457;-65
2023/06/08 07:48:52;;;;;;;6.20;4.57;;;23.70;1.00;;;;;;5094202;28;20544;-65
2023/06/08 07:51:19;;;;;;;9.53;6.53;;;23.70;1.00;;;;;;5094654;28;20457;-65
2023/06/08 07:53:46;;;;;;;6.27;5.10;;;23.80;1.00;;;;;;5094433;28;20848;-65
2023/06/08 07:56:14;;;;;;;5.27;4.77;;;23.80;1.00;;;;;;5094960;28;20852;-65
2023/06/08 07:58:41;;;;;;;10.23;9.00;;;23.80;1.00;;;;;;5094405;28;20534;-65
2023/06/08 08:01:08;;;;;;;5.23;4.60;;;23.90;1.00;;;;;;5094116;28;20933;-65
2023/06/08 08:03:37;;;;;;;7.80;4.90;;;23.90;1.00;;;;;;5094315;28;20467;-65
2023/06/08 08:06:04;;;;;;;5.30;4.70;;;24.00;1.00;;;;;;5094135;28;20457;-65
2023/06/08 08:08:31;;;;;;;8.00;5.03;;;24.00;1.00;;;;;;5094492;28;20461;-65
2023/06/08 08:10:58;;;;;;;6.90;4.97;;;23.90;1.00;;;;;;5094433;28;20448;-65
2023/06/08 08:13:26;;;;;;;9.33;4.53;;;24.00;1.00;;;;;;5094236;28;20481;-65
2023/06/08 08:15:53;;;;;;;17.73;14.57;;;23.90;1.00;;;;;;5094360;28;20453;-65
2023/06/08 08:18:20;;;;;;;9.40;6.27;;;24.00;1.00;;;;;;5094403;28;20736;-65
2023/06/08 08:20:47;;;;;;;5.50;4.63;;;24.00;1.00;;;;;;5094077;28;20487;-65
2023/06/08 08:23:13;;;;;;;4.90;4.40;;;24.10;1.00;;;;;;5093843;28;20897;-64
2023/06/08 08:25:41;;;;;;;5.17;4.30;;;24.20;1.00;;;;;;5094653;28;20463;-64
2023/06/08 08:28:08;;;;;;;8.30;4.83;;;24.30;1.00;;;;;;5094117;28;20493;-64
2023/06/08 08:30:36;;;;;;;6.10;4.60;;;24.30;1.00;;;;;;5093923;28;20453;-64
2023/06/08 08:33:03;;;;;;;5.43;4.27;;;24.30;1.00;;;;;;5094426;28;20453;-64
2023/06/08 08:35:31;;;;;;;5.50;5.00;;;24.40;1.00;;;;;;5094399;28;20771;-65
2023/06/08 08:37:58;;;;;;;10.50;7.90;;;24.50;1.00;;;;;;5094259;28;20815;-65
2023/06/08 08:40:25;;;;;;;7.40;4.97;;;24.50;1.00;;;;;;5093872;28;20473;-65
2023/06/08 08:42:59;;;;;;;5.13;4.63;;;24.60;1.00;;;;;;5095221;28;20540;-65
2023/06/08 08:45:31;;;;;;;4.50;4.10;;;24.70;1.00;;;;;;5098519;28;20532;-66
2023/06/08 08:48:01;;;;;;;7.23;6.63;;;24.70;1.00;;;;;;5098132;28;20460;-66
2023/06/08 08:50:29;;;;;;;8.93;4.40;;;24.80;1.00;;;;;;5098050;28;20536;-66
2023/06/08 08:52:57;;;;;;;4.50;4.10;;;24.90;1.00;;;;;;5097905;28;20461;-66
2023/06/08 08:55:27;;;;;;;4.10;3.70;;;25.00;1.00;;;;;;5097727;28;20807;-66
2023/06/08 08:57:56;;;;;;;6.93;4.57;;;25.00;1.00;;;;;;5097990;28;20469;-66
2023/06/08 09:00:23;;;;;;;5.77;4.43;;;25.10;1.00;;;;;;5097887;28;20564;-66
2023/06/08 09:02:51;;;;;;;10.60;6.90;;;25.20;1.00;;;;;;5097409;28;20463;-66
2023/06/08 09:05:19;;;;;;;6.20;4.90;;;25.30;1.00;;;;;;5097528;28;20461;-66
2023/06/08 09:07:46;;;;;;;6.30;4.43;;;25.40;1.00;;;;;;5097434;28;20540;-66
2023/06/08 09:10:17;;;;;;;5.93;4.20;;;25.50;1.00;;;;;;5097349;28;20548;-66
2023/06/08 09:12:46;;;;;;;5.00;4.40;;;25.60;1.00;;;;;;5097316;28;20564;-66
2023/06/08 09:15:16;;;;;;;4.83;4.43;;;25.70;1.00;;;;;;5097611;28;20460;-67
2023/06/08 09:17:44;;;;;;;7.50;4.83;;;25.80;1.00;;;;;;5097787;28;20566;-67
2023/06/08 09:20:11;;;;;;;5.20;4.30;;;26.00;1.00;;;;;;5097850;28;20477;-67
2023/06/08 09:22:41;;;;;;;5.93;4.63;;;26.10;1.00;;;;;;5097680;28;20549;-67
2023/06/08 09:25:09;;;;;;;5.73;4.63;;;26.30;1.00;;;;;;5097142;28;20917;-67
2023/06/08 09:27:37;;;;;;;4.07;3.63;;;26.40;1.00;;;;;;5097181;28;20532;-65
2023/06/08 09:30:23;;;;;;;5.17;4.67;;;26.60;1.00;;;;;;5097195;28;20932;-65
2023/06/08 09:32:49;;;;;;;7.10;4.83;;;26.80;1.00;;;;;;5097758;28;20763;-66
2023/06/08 09:35:23;;;;;;;5.43;4.57;;;26.90;1.00;;;;;;5097125;28;20952;-66
2023/06/08 09:37:52;;;;;;;4.57;4.17;;;27.10;1.00;;;;;;5097109;28;20528;-66
2023/06/08 09:40:21;;;;;;;4.50;4.07;;;27.20;1.00;;;;;;5096896;28;20473;-66
2023/06/08 09:42:50;;;;;;;8.00;5.10;;;27.20;1.00;;;;;;5096962;28;20981;-66
2023/06/08 09:45:18;;;;;;;7.67;4.47;;;27.30;1.00;;;;;;5096823;28;20530;-66
2023/06/08 09:47:45;;;;;;;5.60;4.57;;;27.30;1.00;;;;;;5096894;28;20461;-66
2023/06/08 09:50:13;;;;;;;4.67;4.20;;;27.40;1.00;;;;;;5096771;28;20560;-66
2023/06/08 09:52:40;;;;;;;5.87;5.27;;;27.50;1.00;;;;;;5096461;28;20461;-66
2023/06/08 09:55:11;;;;;;;7.03;4.27;;;27.50;1.00;;;;;;5095023;28;20457;-66
2023/06/08 09:57:39;;;;;;;5.37;4.07;;;27.50;1.00;;;;;;5096889;28;20518;-66
2023/06/08 10:00:14;;;;;;;5.13;4.57;;;27.50;1.00;;;;;;5096494;28;20567;-66
2023/06/08 10:02:50;;;;;;;6.20;5.53;;;27.50;1.00;;;;;;5096667;28;20820;-66
2023/06/08 10:05:22;;;;;;;6.97;4.20;;;27.50;1.00;;;;;;5096704;28;20469;-67
2023/06/08 10:07:52;;;;;;;5.93;4.57;;;27.50;1.00;;;;;;5096875;28;20451;-66
2023/06/08 10:10:22;;;;;;;11.30;4.70;;;27.60;1.00;;;;;;5096301;28;20496;-66
2023/06/08 10:12:49;;;;;;;7.13;4.00;;;27.60;1.00;;;;;;5096411;28;20477;-66
2023/06/08 10:15:16;;;;;;;8.90;4.50;;;27.60;1.00;;;;;;5096261;28;20489;-66
2023/06/08 10:17:44;;;;;;;5.80;4.63;;;27.60;1.00;;;;;;5095997;28;20972;-66
2023/06/08 10:20:16;;;;;;;8.47;4.27;;;27.70;1.00;;;;;;5096371;28;20524;-66
2023/06/08 10:22:44;;;;;;;5.20;4.70;;;27.70;1.00;;;;;;5096409;28;20442;-66
2023/06/08 10:25:13;;;;;;;4.40;4.03;;;27.70;1.00;;;;;;5096275;28;20763;-66
2023/06/08 10:27:48;;;;;;;5.13;4.63;;;27.80;1.00;;;;;;5096152;28;20457;-68
2023/06/08 10:30:28;;;;;;;4.70;4.30;;;27.80;1.00;;;;;;5096339;28;20433;-66
2023/06/08 10:32:56;;;;;;;5.23;4.77;;;27.90;1.00;;;;;;5095918;28;20442;-66
2023/06/08 10:35:23;;;;;;;5.70;4.50;;;27.90;1.00;;;;;;5095694;28;20503;-66
2023/06/08 10:37:50;;;;;;;6.03;4.57;;;27.90;1.00;;;;;;5096226;28;20821;-66
2023/06/08 10:40:20;;;;;;;4.80;4.10;;;27.90;1.00;;;;;;5095873;28;20508;-66
2023/06/08 10:42:56;;;;;;;4.87;3.90;;;28.00;1.00;;;;;;5095695;28;20870;-66
2023/06/08 10:45:32;;;;;;;4.83;4.30;;;28.10;1.00;;;;;;5095979;28;20524;-66
2023/06/08 10:48:08;;;;;;;10.93;5.33;;;28.20;1.00;;;;;;5096184;28;20452;-67
2023/06/08 10:50:38;;;;;;;6.10;4.70;;;28.30;1.00;;;;;;5095988;28;20476;-66
2023/06/08 10:53:05;;;;;;;13.00;10.43;;;28.40;1.00;;;;;;5095811;28;20453;-66
2023/06/08 10:55:32;;;;;;;6.80;5.27;;;28.50;1.00;;;;;;5095562;28;20455;-66
2023/06/08 10:58:06;;;;;;;5.80;4.60;;;28.50;1.00;;;;;;5095264;28;20492;-66
2023/06/08 11:00:43;;;;;;;7.70;5.20;;;28.60;1.00;;;;;;5095919;28;20786;-66
2023/06/08 11:03:16;;;;;;;8.60;5.03;;;28.70;1.00;;;;;;5095497;28;20536;-66
2023/06/08 11:05:44;;;;;;;8.80;4.70;;;28.80;1.00;;;;;;5094670;28;20493;-66
2023/06/08 11:08:12;;;;;;;8.13;4.53;;;28.90;1.00;;;;;;5095582;28;20493;-66
2023/06/08 11:10:40;;;;;;;5.00;4.50;;;29.10;1.00;;;;;;5095192;28;20539;-66
2023/06/08 11:13:10;;;;;;;5.23;4.73;;;29.20;1.00;;;;;;5095302;28;20682;-66
2023/06/08 11:15:38;;;;;;;10.40;5.10;;;29.40;1.00;;;;;;5095107;28;20925;-66
2023/06/08 11:18:07;;;;;;;5.60;4.57;;;29.70;1.00;;;;;;5095495;28;20544;-67
2023/06/08 11:20:34;;;;;;;5.00;4.60;;;30.30;1.00;;;;;;5095027;28;20477;-66
2023/06/08 11:23:02;;;;;;;7.70;3.93;;;31.10;1.00;;;;;;5095193;28;20552;-66
2023/06/08 11:25:29;;;;;;;4.50;4.10;;;31.60;1.00;;;;;;5094760;28;20457;-67
2023/06/08 11:27:57;;;;;;;7.33;4.40;;;31.70;1.00;;;;;;5095081;28;20813;-67
2023/06/08 11:30:26;;;;;;;8.43;4.40;;;32.10;1.00;;;;;;5094760;28;20459;-68
2023/06/08 11:32:53;;;;;;;4.90;4.40;;;32.80;1.00;;;;;;5095085;28;20464;-68
2023/06/08 11:35:21;;;;;;;6.23;4.90;;;33.50;1.00;;;;;;5094908;28;20496;-67
2023/06/08 11:37:50;;;;;;;7.13;4.40;;;34.20;1.00;;;;;;5095589;28;20492;-68
2023/06/08 11:40:17;;;;;;;5.00;4.60;;;35.00;1.00;;;;;;5094265;28;20477;-66
2023/06/08 11:42:44;;;;;;;4.30;4.00;;;35.60;1.00;;;;;;5094501;28;20455;-66
2023/06/08 11:45:13;;;;;;;11.30;10.10;;;36.10;1.00;;;;;;5094591;28;20457;-67
2023/06/08 11:47:42;;;;;;;4.80;4.40;;;36.50;1.00;;;;;;5094493;28;20915;-67
2023/06/08 11:50:10;;;;;;;4.93;4.30;;;36.90;1.00;;;;;;5094821;28;20494;-67
2023/06/08 11:52:39;;;;;;;8.53;4.30;;;36.70;1.00;;;;;;5095078;28;20752;-67
2023/06/08 11:55:11;;;;;;;4.13;3.73;;;36.10;1.00;;;;;;5094782;28;20457;-67
2023/06/08 11:57:40;;;;;;;4.13;3.83;;;35.20;1.00;;;;;;5094846;28;20445;-68
2023/06/08 12:00:09;;;;;;;6.40;4.50;;;34.30;1.00;;;;;;5094633;28;20486;-67
2023/06/08 12:02:37;;;;;;;5.70;5.00;;;33.60;1.00;;;;;;5094487;28;20465;-68
2023/06/08 12:05:07;;;;;;;4.17;3.77;;;33.60;1.00;;;;;;5094429;28;20463;-68
2023/06/08 12:07:34;;;;;;;7.10;4.90;;;34.10;1.00;;;;;;5094366;28;20437;-68
2023/06/08 12:10:02;;;;;;;5.13;4.67;;;34.70;1.00;;;;;;5094352;28;20484;-68
2023/06/08 12:12:30;;;;;;;4.80;4.40;;;35.40;1.00;;;;;;5094130;28;20534;-68
2023/06/08 12:14:57;;;;;;;5.43;4.43;;;36.00;1.00;;;;;;5094323;28;20783;-67
2023/06/08 12:17:29;;;;;;;10.27;4.93;;;36.50;1.00;;;;;;5093660;28;20530;-67
2023/06/08 12:19:56;;;;;;;7.20;5.90;;;36.80;1.00;;;;;;5094181;28;20467;-67
2023/06/08 12:22:24;;;;;;;7.33;5.60;;;37.20;1.00;;;;;;5094285;28;20813;-67
2023/06/08 12:24:51;;;;;;;5.33;4.40;;;37.60;1.00;;;;;;5094450;28;20467;-67
2023/06/08 12:27:18;;;;;;;7.80;4.50;;;37.90;1.00;;;;;;5094743;28;20548;-67
2023/06/08 12:29:47;;;;;;;7.93;4.77;;;38.20;1.00;;;;;;5094399;28;20544;-67
2023/06/08 12:32:15;;;;;;;7.03;6.30;;;38.40;1.00;;;;;;5094260;28;20767;-67
2023/06/08 12:34:42;;;;;;;11.47;9.23;;;38.70;1.00;;;;;;5094062;28;20461;-67
2023/06/08 12:37:11;;;;;;;6.07;5.27;;;38.70;1.00;;;;;;5094508;28;20461;-67
2023/06/08 12:39:39;;;;;;;7.13;4.77;;;38.70;1.00;;;;;;5094022;28;20461;-67
2023/06/08 12:42:07;;;;;;;4.70;3.90;;;38.70;1.00;;;;;;5094018;28;20477;-68
2023/06/08 12:44:34;;;;;;;4.90;3.93;;;38.70;1.00;;;;;;5093694;28;20453;-67
2023/06/08 12:47:01;;;;;;;4.07;3.77;;;38.70;1.00;;;;;;5094002;28;20457;-67
2023/06/08 12:49:28;;;;;;;4.30;4.00;;;38.90;1.00;;;;;;5094105;28;20945;-67
2023/06/08 12:51:55;;;;;;;7.47;4.90;;;39.00;1.00;;;;;;5093803;28;20453;-67
2023/06/08 12:54:22;;;;;;;5.57;4.30;;;39.10;1.00;;;;;;5093968;28;20544;-68
2023/06/08 12:56:50;;;;;;;4.83;3.80;;;39.10;1.00;;;;;;5093846;28;20787;-67
2023/06/08 12:59:17;;;;;;;6.43;4.07;;;39.30;1.00;;;;;;5093982;28;20781;-67
2023/06/08 13:01:43;;;;;;;4.63;4.23;;;39.40;1.00;;;;;;5094067;28;20487;-67
2023/06/08 13:04:10;;;;;;;5.97;3.70;;;39.40;1.00;;;;;;5093865;28;20513;-68
2023/06/08 13:06:37;;;;;;;5.90;4.17;;;39.50;1.00;;;;;;5093797;28;20789;-67
2023/06/08 13:09:04;;;;;;;4.50;4.10;;;39.10;1.00;;;;;;5093935;28;20457;-67
2023/06/08 13:11:31;;;;;;;5.30;4.13;;;38.80;1.00;;;;;;5093249;28;20578;-67
2023/06/08 13:13:59;;;;;;;5.07;4.67;;;38.70;1.00;;;;;;5094141;28;20748;-66
2023/06/08 13:16:26;;;;;;;3.90;3.60;;;38.60;1.00;;;;;;5093692;28;20468;-67
2023/06/08 13:18:53;;;;;;;4.57;4.13;;;38.70;1.00;;;;;;5094012;28;20893;-67
2023/06/08 13:21:20;;;;;;;4.30;3.90;;;38.80;1.00;;;;;;5093689;28;20481;-67
2023/06/08 13:23:47;;;;;;;6.30;5.27;;;38.30;1.00;;;;;;5093869;28;20488;-67
2023/06/08 13:26:14;;;;;;;5.47;4.73;;;37.80;1.00;;;;;;5093905;28;20953;-67
2023/06/08 13:28:41;;;;;;;6.40;5.73;;;37.60;1.00;;;;;;5094186;28;20552;-67
2023/06/08 13:31:09;;;;;;;6.43;4.43;;;37.70;1.00;;;;;;5096965;28;20606;-67
2023/06/08 13:33:36;;;;;;;5.73;4.70;;;37.60;1.00;;;;;;5097071;28;20463;-66
2023/06/08 13:36:03;;;;;;;4.50;4.20;;;37.10;1.00;;;;;;5097456;28;20483;-66
2023/06/08 13:38:30;;;;;;;4.93;4.53;;;36.40;1.00;;;;;;5097339;28;20500;-67
2023/06/08 13:40:57;;;;;;;6.73;4.60;;;35.70;1.00;;;;;;5096821;28;20484;-66
2023/06/08 13:43:23;;;;;;;4.60;4.20;;;35.00;1.00;;;;;;5097116;28;20492;-66
2023/06/08 13:45:57;;;;;;;4.33;3.97;;;34.30;1.00;;;;;;5097008;28;20471;-67
2023/06/08 13:48:26;;;;;;;5.20;4.80;;;33.70;1.00;;;;;;5096630;28;20532;-67
2023/06/08 13:50:53;;;;;;;8.30;4.90;;;33.70;1.00;;;;;;5096782;28;20457;-67
2023/06/08 13:53:20;;;;;;;7.47;3.83;;;33.90;1.00;;;;;;5097087;28;20457;-66
2023/06/08 13:55:47;;;;;;;5.00;4.40;;;33.80;1.00;;;;;;5096912;28;20457;-67
2023/06/08 13:58:14;;;;;;;8.27;4.07;;;33.50;1.00;;;;;;5096417;28;20453;-66
2023/06/08 14:00:41;;;;;;;5.20;4.70;;;33.20;1.00;;;;;;5096647;28;20786;-66
2023/06/08 14:03:08;;;;;;;5.87;5.30;;;32.80;1.00;;;;;;5096067;28;20454;-66
2023/06/08 14:05:36;;;;;;;10.73;8.10;;;32.60;1.00;;;;;;5095937;28;20546;-66
2023/06/08 14:08:03;;;;;;;5.77;5.27;;;32.50;1.00;;;;;;5095884;28;20983;-66
2023/06/08 14:10:31;;;;;;;5.90;5.00;;;32.30;1.00;;;;;;5095987;28;20908;-66
2023/06/08 14:12:58;;;;;;;5.03;4.53;;;32.00;1.00;;;;;;5095874;28;20564;-66
2023/06/08 14:15:25;;;;;;;4.90;4.50;;;32.30;1.00;;;;;;5096524;28;20476;-67
2023/06/08 14:17:55;;;;;;;7.73;5.27;;;33.10;1.00;;;;;;5096556;28;20488;-67
2023/06/08 14:20:22;;;;;;;4.87;4.40;;;34.20;1.00;;;;;;5096159;28;20507;-66
2023/06/08 14:22:51;;;;;;;4.67;4.27;;;35.10;1.00;;;;;;5095992;28;20473;-67
2023/06/08 14:25:18;;;;;;;5.17;4.67;;;35.80;1.00;;;;;;5096037;28;20458;-67
2023/06/08 14:27:44;;;;;;;5.63;4.63;;;36.40;1.00;;;;;;5096173;28;20463;-67
2023/06/08 14:30:12;;;;;;;5.20;4.70;;;36.70;1.00;;;;;;5095884;28;20500;-66
2023/06/08 14:32:39;;;;;;;7.37;6.50;;;37.00;1.00;;;;;;5095925;28;20548;-67
2023/06/08 14:35:07;;;;;;;5.07;4.60;;;37.10;1.00;;;;;;5096140;28;20553;-67
2023/06/08 14:37:33;;;;;;;5.37;4.90;;;37.00;1.00;;;;;;5095971;28;20510;-67
2023/06/08 14:40:02;;;;;;;9.30;8.03;;;36.40;1.00;;;;;;5095026;28;20454;-67
2023/06/08 14:42:29;;;;;;;6.90;5.10;;;35.90;1.00;;;;;;5096465;28;20485;-66
2023/06/08 14:44:56;;;;;;;8.17;4.87;;;35.40;1.00;;;;;;5096193;28;20457;-66
2023/06/08 14:47:22;;;;;;;4.73;4.07;;;34.80;1.00;;;;;;5095976;28;20457;-66
2023/06/08 14:49:49;;;;;;;5.37;4.90;;;34.20;1.00;;;;;;5095933;28;20454;-66
2023/06/08 14:52:16;;;;;;;9.40;5.50;;;33.60;1.00;;;;;;5095371;28;20552;-66
2023/06/08 14:54:43;;;;;;;7.33;5.03;;;33.10;1.00;;;;;;5095704;28;20548;-66
2023/06/08 14:57:11;;;;;;;5.23;4.73;;;32.80;1.00;;;;;;5095514;28;20457;-66
2023/06/08 14:59:38;;;;;;;15.07;5.40;;;32.30;1.00;;;;;;5095777;28;20476;-66
2023/06/08 15:02:06;;;;;;;6.63;5.40;;;32.00;1.00;;;;;;5095388;28;21044;-66
2023/06/08 15:04:33;;;;;;;5.87;5.27;;;31.70;1.00;;;;;;5095745;28;20463;-67
2023/06/08 15:06:59;;;;;;;5.90;5.40;;;31.60;1.00;;;;;;5095555;28;20534;-66
2023/06/08 15:09:26;;;;;;;5.50;4.70;;;31.50;1.00;;;;;;5095667;28;20556;-66
2023/06/08 15:11:53;;;;;;;8.33;4.47;;;31.40;1.00;;;;;;5095674;28;20477;-66
2023/06/08 15:14:21;;;;;;;5.30;4.80;;;31.20;1.00;;;;;;5095314;28;20464;-66
2023/06/08 15:16:48;;;;;;;9.17;5.00;;;31.00;1.00;;;;;;5094741;28;20548;-66
2023/06/08 15:19:15;;;;;;;6.53;5.90;;;30.90;1.00;;;;;;5095027;28;20545;-66
2023/06/08 15:21:42;;;;;;;6.80;4.93;;;30.70;1.00;;;;;;5094737;28;20973;-65
2023/06/08 15:24:09;;;;;;;5.93;5.33;;;30.60;1.00;;;;;;5094881;28;20928;-66
2023/06/08 15:26:36;;;;;;;6.20;4.97;;;30.60;1.00;;;;;;5094852;28;20453;-66
2023/06/08 15:29:03;;;;;;;5.50;5.07;;;30.50;1.00;;;;;;5095037;28;20449;-66
2023/06/08 15:31:32;;;;;;;8.70;5.00;;;30.50;1.00;;;;;;5094433;28;20559;-66
2023/06/08 15:33:58;;;;;;;5.83;5.33;;;30.50;1.00;;;;;;5094947;28;20461;-66
2023/06/08 15:36:25;;;;;;;6.70;5.37;;;30.60;1.00;;;;;;5095144;28;20454;-66
2023/06/08 15:38:52;;;;;;;7.50;4.80;;;30.60;1.00;;;;;;5095021;28;20471;-66
2023/06/08 15:41:19;;;;;;;5.10;4.70;;;30.60;1.00;;;;;;5095246;28;20461;-66
2023/06/08 15:43:46;;;;;;;5.37;4.87;;;30.60;1.00;;;;;;5094781;28;20549;-66
2023/06/08 15:46:13;;;;;;;5.30;4.77;;;30.60;1.00;;;;;;5094517;28;20463;-67
2023/06/08 15:48:42;;;;;;;9.03;4.50;;;30.50;1.00;;;;;;5094673;28;20463;-66
2023/06/08 15:51:11;;;;;;;5.77;5.27;;;30.50;1.00;;;;;;5094275;28;20454;-66
2023/06/08 15:53:38;;;;;;;7.07;6.47;;;30.50;1.00;;;;;;5094299;28;20454;-67
2023/06/08 15:56:05;;;;;;;10.53;5.83;;;30.50;1.00;;;;;;5094599;28;20454;-66
2023/06/08 15:58:32;;;;;;;5.23;4.80;;;30.50;1.00;;;;;;5094429;28;20551;-66
2023/06/08 16:00:59;;;;;;;5.20;4.47;;;30.50;1.00;;;;;;5094047;28;20930;-67
2023/06/08 16:03:26;;;;;;;4.53;4.13;;;30.50;1.00;;;;;;5094138;28;20473;-67
2023/06/08 16:05:55;;;;;;;5.17;4.67;;;30.60;1.00;;;;;;5094032;28;20773;-67
2023/06/08 16:08:22;;;;;;;6.80;6.10;;;30.70;1.00;;;;;;5094105;28;20936;-67
2023/06/08 16:10:51;;;;;;;6.50;5.37;;;30.90;1.00;;;;;;5093846;28;20552;-67
2023/06/08 16:13:18;;;;;;;5.80;5.30;;;31.10;1.00;;;;;;5093836;28;20491;-67
2023/06/08 16:15:45;;;;;;;5.50;5.00;;;31.30;1.00;;;;;;5094035;28;20453;-67
2023/06/08 16:18:11;;;;;;;6.20;5.40;;;31.50;1.00;;;;;;5094442;28;20610;-67
2023/06/08 16:20:38;;;;;;;6.33;5.73;;;31.80;1.00;;;;;;5093953;28;20496;-67
2023/06/08 16:23:07;;;;;;;6.73;6.13;;;32.00;1.00;;;;;;5093556;28;20487;-67
2023/06/08 16:25:33;;;;;;;8.00;4.93;;;32.10;1.00;;;;;;5093902;28;20463;-66
2023/06/08 16:28:00;;;;;;;7.73;6.40;;;32.20;1.00;;;;;;5094293;28;20464;-66
2023/06/08 16:30:27;;;;;;;5.50;5.00;;;32.40;1.00;;;;;;5094404;28;20479;-66